Time;durP1;ratioP1;P1;durP2;ratioP2;P2;SDS_P1;SDS_P2;PMS_P1;PMS_P2;Temp;Humidity;BMP_temperature;BMP_pressure;BME280_temperature;BME280_humidity;BME280_pressure;Samples;Min_cycle;Max_cycle;Signal;HPM_P1;HPM_P2
2021/12/10 00:01:49;;;;;;;77.50;34.60;;;0.70;99.90;;;;;;4960865;28;20059;-86
2021/12/10 00:04:17;;;;;;;118.80;40.22;;;0.60;99.90;;;;;;4960366;28;20035;-86
2021/12/10 00:07:07;;;;;;;84.35;35.45;;;0.70;99.90;;;;;;4960753;28;20031;-86
2021/12/10 00:09:43;;;;;;;93.15;39.15;;;0.60;99.90;;;;;;4978013;28;20038;-86
2021/12/10 00:12:16;;;;;;;86.82;39.42;;;0.70;99.90;;;;;;4976564;28;20035;-86
2021/12/10 00:14:43;;;;;;;93.65;41.28;;;0.70;99.90;;;;;;4960316;28;20513;-86
2021/12/10 00:17:11;;;;;;;86.63;40.95;;;0.70;99.90;;;;;;4960132;28;20126;-86
2021/12/10 00:19:44;;;;;;;96.43;40.63;;;0.70;99.90;;;;;;4976697;28;20599;-86
2021/12/10 00:22:14;;;;;;;102.60;42.42;;;0.70;99.90;;;;;;4976735;28;20026;-85
2021/12/10 00:24:42;;;;;;;94.03;39.45;;;0.70;99.90;;;;;;4976690;28;20034;-86
2021/12/10 00:27:09;;;;;;;83.13;39.65;;;0.70;99.90;;;;;;4976630;28;20031;-86
2021/12/10 00:29:39;;;;;;;103.07;39.85;;;0.70;99.90;;;;;;4976652;28;20033;-86
2021/12/10 00:32:16;;;;;;;101.93;40.15;;;0.70;99.90;;;;;;4976862;28;20030;-86
2021/12/10 00:34:45;;;;;;;84.75;36.00;;;0.70;99.90;;;;;;4976337;28;20041;-86
2021/12/10 00:37:14;;;;;;;90.50;36.47;;;0.70;99.90;;;;;;4960343;28;20073;-86
2021/12/10 00:39:44;;;;;;;86.25;36.47;;;0.70;99.90;;;;;;4976474;28;20126;-86
2021/12/10 00:42:25;;;;;;;84.63;34.83;;;0.60;99.90;;;;;;4976352;28;20034;-86
2021/12/10 00:44:50;;;;;;;83.82;32.20;;;0.60;99.90;;;;;;4976451;28;20037;-86
2021/12/10 00:47:16;;;;;;;81.50;29.27;;;0.60;99.90;;;;;;4976377;28;20114;-86
2021/12/10 00:49:43;;;;;;;75.97;30.52;;;0.60;99.90;;;;;;4977182;28;20027;-86
2021/12/10 00:52:11;;;;;;;86.78;29.80;;;0.60;99.90;;;;;;4976351;28;20070;-86
2021/12/10 00:54:36;;;;;;;95.47;31.38;;;0.60;99.90;;;;;;4975834;28;20419;-86
2021/12/10 00:57:05;;;;;;;80.30;29.77;;;0.60;99.90;;;;;;4976086;28;20030;-86
2021/12/10 00:59:30;;;;;;;70.43;28.35;;;0.60;99.90;;;;;;4975815;28;20090;-86
2021/12/10 01:01:56;;;;;;;55.15;24.67;;;0.60;99.90;;;;;;4977231;28;20062;-86
2021/12/10 01:04:34;;;;;;;59.42;23.88;;;0.60;99.90;;;;;;4975471;28;20031;-86
2021/12/10 01:07:05;;;;;;;71.35;22.30;;;0.60;99.90;;;;;;4959684;28;20042;-86
2021/12/10 01:09:34;;;;;;;56.83;22.95;;;0.60;99.90;;;;;;4975485;28;20038;-86
2021/12/10 01:12:10;;;;;;;61.70;22.25;;;0.50;99.90;;;;;;4975613;28;20475;-86
2021/12/10 01:26:08;;;;;;;56.45;18.70;;;0.50;99.90;;;;;;4975342;28;20077;-86
2021/12/10 01:28:37;;;;;;;58.72;18.00;;;0.50;99.90;;;;;;4975262;28;20094;-86
2021/12/10 01:31:04;;;;;;;56.75;19.55;;;0.50;99.90;;;;;;4975063;28;20023;-87
2021/12/10 01:33:30;;;;;;;49.85;17.58;;;0.50;99.90;;;;;;4974899;28;20043;-85
2021/12/10 01:35:57;;;;;;;46.75;17.25;;;0.50;99.90;;;;;;4974846;28;20623;-86
2021/12/10 01:38:24;;;;;;;48.05;16.88;;;0.60;99.90;;;;;;4975267;28;20525;-86
2021/12/10 01:40:54;;;;;;;56.50;17.75;;;0.50;99.90;;;;;;4974891;28;20030;-86
2021/12/10 01:43:23;;;;;;;52.72;18.73;;;0.50;99.90;;;;;;4974772;28;20062;-86
2021/12/10 01:46:06;;;;;;;68.50;20.13;;;0.50;99.90;;;;;;4958668;28;20038;-86
2021/12/10 01:48:52;;;;;;;51.00;17.00;;;0.50;99.90;;;;;;4958762;28;20039;-86
2021/12/10 01:51:23;;;;;;;50.45;17.20;;;0.50;99.90;;;;;;4974180;28;20402;-85
2021/12/10 01:53:53;;;;;;;56.47;16.33;;;0.50;99.90;;;;;;4974497;28;20035;-85
2021/12/10 01:56:24;;;;;;;54.08;17.13;;;0.40;99.90;;;;;;4958891;28;20066;-86
2021/12/10 01:58:50;;;;;;;48.60;16.20;;;0.40;99.90;;;;;;4974750;28;20031;-85
2021/12/10 02:01:22;;;;;;;43.13;15.93;;;0.40;99.90;;;;;;4974387;28;20037;-85
2021/12/10 02:03:52;;;;;;;63.28;18.08;;;0.30;99.90;;;;;;4974065;28;20035;-85
2021/12/10 02:06:18;;;;;;;57.17;19.30;;;0.30;99.90;;;;;;4974783;28;20031;-85
2021/12/10 02:08:46;;;;;;;68.30;21.58;;;0.30;99.90;;;;;;4974166;28;20066;-86
2021/12/10 02:11:12;;;;;;;87.00;26.58;;;0.20;99.90;;;;;;4974065;28;20043;-85
2021/12/10 02:13:38;;;;;;;70.82;22.08;;;0.20;99.90;;;;;;4957891;28;20089;-85
2021/12/10 02:16:06;;;;;;;81.18;24.02;;;0.10;99.90;;;;;;4974853;28;20031;-85
2021/12/10 02:18:32;;;;;;;105.30;26.50;;;0.00;99.90;;;;;;4973941;28;20037;-86
2021/12/10 02:21:01;;;;;;;89.95;25.13;;;0.00;99.90;;;;;;4958042;28;20178;-86
2021/12/10 02:23:34;;;;;;;73.47;23.17;;;0.00;99.90;;;;;;4975192;28;20026;-85
2021/12/10 02:26:02;;;;;;;73.80;24.13;;;-0.10;99.90;;;;;;4974470;28;20027;-85
2021/12/10 02:28:28;;;;;;;71.60;24.08;;;-0.20;99.90;;;;;;4974199;28;20040;-86
2021/12/10 02:30:55;;;;;;;79.30;22.83;;;-0.20;99.90;;;;;;4958354;28;20038;-85
2021/12/10 02:33:22;;;;;;;67.22;22.88;;;-0.30;99.90;;;;;;4974431;28;20038;-85
2021/12/10 02:35:48;;;;;;;62.03;23.02;;;-0.30;99.90;;;;;;4974610;28;20082;-86
2021/12/10 02:38:17;;;;;;;66.85;22.45;;;-0.30;99.90;;;;;;4958038;28;20037;-85
2021/12/10 02:40:44;;;;;;;65.10;23.55;;;-0.30;99.90;;;;;;4973759;28;20035;-85
2021/12/10 02:43:13;;;;;;;74.00;23.58;;;-0.30;99.90;;;;;;4973860;28;20078;-85
2021/12/10 02:45:42;;;;;;;71.00;24.63;;;-0.30;99.90;;;;;;4973871;28;20066;-85
2021/12/10 02:48:08;;;;;;;77.70;25.17;;;-0.30;99.90;;;;;;4957700;28;20105;-85
2021/12/10 02:50:35;;;;;;;73.00;25.98;;;-0.30;99.90;;;;;;4973840;28;20125;-85
2021/12/10 02:53:02;;;;;;;71.93;24.20;;;-0.40;99.90;;;;;;4973905;28;20446;-85
2021/12/10 02:55:32;;;;;;;58.80;21.73;;;-0.40;99.90;;;;;;4973553;28;20027;-86
2021/12/10 02:58:02;;;;;;;69.85;21.67;;;-0.40;99.90;;;;;;4973797;28;20089;-86
2021/12/10 03:00:34;;;;;;;65.57;22.05;;;-0.50;99.90;;;;;;4973879;28;20034;-86
2021/12/10 03:03:12;;;;;;;;;;;-0.50;99.90;;;;;;4973320;28;20074;-86
2021/12/10 03:05:53;;;;;;;56.78;19.50;;;-0.60;99.90;;;;;;4957889;28;19915;-86
2021/12/10 03:08:19;;;;;;;50.35;18.08;;;-0.60;99.90;;;;;;4973537;28;20367;-86
2021/12/10 03:10:45;;;;;;;49.50;18.35;;;-0.60;99.90;;;;;;4973913;28;20035;-86
2021/12/10 03:13:12;;;;;;;56.20;17.75;;;-0.60;99.90;;;;;;4973970;28;20031;-86
2021/12/10 03:15:38;;;;;;;57.75;18.48;;;-0.60;99.90;;;;;;4973995;28;20125;-87
2021/12/10 03:18:07;;;;;;;52.55;18.17;;;-0.60;99.90;;;;;;4974189;28;20091;-86
2021/12/10 03:20:33;;;;;;;50.70;17.88;;;-0.60;99.90;;;;;;4974206;28;20038;-87
2021/12/10 03:23:01;;;;;;;52.38;17.25;;;-0.70;99.90;;;;;;4974062;28;20027;-87
2021/12/10 03:25:27;;;;;;;45.47;16.92;;;-0.70;99.90;;;;;;4974124;28;20034;-87
2021/12/10 03:27:53;;;;;;;54.42;16.98;;;-0.70;99.90;;;;;;4973807;28;20034;-87
2021/12/10 03:30:25;;;;;;;52.30;16.95;;;-0.80;99.90;;;;;;4974043;28;20053;-87
2021/12/10 03:32:51;;;;;;;39.45;16.20;;;-0.80;99.90;;;;;;4974382;28;20057;-87
2021/12/10 03:35:27;;;;;;;54.00;16.45;;;-0.80;99.90;;;;;;4974131;28;20555;-87
2021/12/10 03:37:54;;;;;;;39.75;15.77;;;-0.80;99.90;;;;;;4974400;28;20035;-87
2021/12/10 03:40:20;;;;;;;50.58;15.85;;;-0.80;99.90;;;;;;4973718;28;20118;-87
2021/12/10 03:42:47;;;;;;;45.55;15.35;;;-0.90;99.90;;;;;;4974108;28;20077;-87
2021/12/10 03:45:14;;;;;;;41.83;16.80;;;-0.90;99.90;;;;;;4957904;28;20034;-87
2021/12/10 03:47:41;;;;;;;39.22;15.55;;;-1.00;99.90;;;;;;4974146;28;20031;-87
2021/12/10 03:50:10;;;;;;;52.97;15.95;;;-1.00;99.90;;;;;;4974253;28;20034;-88
2021/12/10 03:52:35;;;;;;;44.08;15.35;;;-1.00;99.90;;;;;;4974015;28;20026;-88
2021/12/10 03:55:04;;;;;;;50.90;15.02;;;-1.00;99.90;;;;;;4974067;28;20410;-88
2021/12/10 03:57:29;;;;;;;48.35;14.98;;;-1.00;99.90;;;;;;4957965;28;20098;-88
2021/12/10 03:59:55;;;;;;;42.20;13.15;;;-1.10;99.90;;;;;;4973953;28;20031;-88
2021/12/10 04:02:21;;;;;;;49.42;13.13;;;-1.10;99.90;;;;;;4973996;28;20811;-89
2021/12/10 04:05:05;;;;;;;45.42;13.45;;;-1.10;99.90;;;;;;4974182;28;20034;-88
2021/12/10 04:07:31;;;;;;;44.53;14.13;;;-1.10;99.90;;;;;;4974069;28;20059;-89
2021/12/10 04:09:57;;;;;;;35.05;12.18;;;-1.20;99.90;;;;;;4973989;28;20062;-88
2021/12/10 04:12:23;;;;;;;46.30;12.80;;;-1.20;99.90;;;;;;4974146;28;20463;-89
2021/12/10 04:14:52;;;;;;;33.47;12.95;;;-1.20;99.90;;;;;;4959798;28;20474;-90
2021/12/10 04:17:20;;;;;;;33.28;12.68;;;-1.20;99.90;;;;;;4977778;28;20407;-88
2021/12/10 04:19:47;;;;;;;37.92;12.68;;;-1.20;99.90;;;;;;4977597;28;20063;-88
2021/12/10 04:22:14;;;;;;;35.60;12.48;;;-1.20;99.90;;;;;;4961595;28;20454;-89
2021/12/10 04:24:41;;;;;;;43.35;14.18;;;-1.20;99.90;;;;;;4977431;28;20042;-88
2021/12/10 04:27:10;;;;;;;44.38;12.70;;;-1.20;99.90;;;;;;4961570;28;20442;-89
2021/12/10 04:29:37;;;;;;;36.42;13.00;;;-1.20;99.90;;;;;;4977599;28;20046;-90
2021/12/10 04:32:04;;;;;;;38.70;14.98;;;-1.20;99.90;;;;;;4961494;28;20077;-89
2021/12/10 04:34:30;;;;;;;36.15;13.85;;;-1.20;99.90;;;;;;4977579;28;20034;-89
2021/12/10 04:36:59;;;;;;;44.47;13.57;;;-1.20;99.90;;;;;;4977477;28;20094;-90
2021/12/10 04:39:25;;;;;;;49.15;16.50;;;-1.20;99.90;;;;;;4977037;28;20078;-90
2021/12/10 04:41:51;;;;;;;50.03;17.27;;;-1.20;99.90;;;;;;4977405;28;20040;-89
2021/12/10 04:44:17;;;;;;;53.35;15.55;;;-1.20;99.90;;;;;;4977260;28;20027;-89
2021/12/10 04:46:43;;;;;;;57.67;19.70;;;-1.20;99.90;;;;;;4977520;28;20073;-89
2021/12/10 04:49:12;;;;;;;54.00;17.25;;;-1.20;99.90;;;;;;4977380;28;20027;-89
2021/12/10 04:51:50;;;;;;;42.25;16.35;;;-1.20;99.90;;;;;;4977126;28;20030;-88
2021/12/10 04:54:20;;;;;;;37.90;13.50;;;-1.30;99.90;;;;;;4976978;28;20094;-90
2021/12/10 04:56:50;;;;;;;38.92;13.38;;;-1.30;99.90;;;;;;4977481;28;20098;-89
2021/12/10 04:59:17;;;;;;;35.92;13.23;;;-1.40;99.90;;;;;;4976802;28;20395;-89
2021/12/10 05:01:44;;;;;;;40.22;12.15;;;-1.40;99.90;;;;;;4960383;28;20031;-88
2021/12/10 05:04:12;;;;;;;39.92;11.75;;;-1.40;99.90;;;;;;4977249;28;20061;-89
2021/12/10 05:06:38;;;;;;;42.92;12.13;;;-1.40;99.90;;;;;;4977137;28;20150;-89
2021/12/10 05:09:07;;;;;;;39.88;11.20;;;-1.40;99.90;;;;;;4976576;28;20039;-89
2021/12/10 05:11:33;;;;;;;35.55;12.60;;;-1.40;99.90;;;;;;4976777;28;20066;-88
2021/12/10 05:13:59;;;;;;;37.60;13.30;;;-1.50;99.90;;;;;;4977239;28;20039;-89
2021/12/10 05:16:26;;;;;;;63.22;17.30;;;-1.50;99.90;;;;;;4960409;28;20042;-89
2021/12/10 05:18:58;;;;;;;49.13;18.33;;;-1.50;99.90;;;;;;4976797;28;20101;-89
2021/12/10 05:21:27;;;;;;;49.75;17.52;;;-1.50;99.90;;;;;;4976901;28;20383;-89
2021/12/10 05:23:53;;;;;;;64.10;20.20;;;-1.60;99.90;;;;;;4976525;28;20121;-89
2021/12/10 05:26:19;;;;;;;55.30;20.30;;;-1.60;99.90;;;;;;4959623;28;20502;-89
2021/12/10 05:28:45;;;;;;;60.78;22.27;;;-1.70;99.90;;;;;;4976778;28;20042;-89
2021/12/10 05:31:11;;;;;;;62.13;23.08;;;-1.70;99.90;;;;;;4976513;28;20035;-89
2021/12/10 05:33:37;;;;;;;63.15;22.35;;;-1.80;99.90;;;;;;4976732;28;20041;-90
2021/12/10 05:36:04;;;;;;;53.13;18.67;;;-1.80;99.90;;;;;;4960940;28;20031;-89
2021/12/10 05:38:31;;;;;;;53.03;16.20;;;-1.80;99.90;;;;;;4976959;28;20026;-89
2021/12/10 05:40:58;;;;;;;33.08;14.07;;;-1.80;99.90;;;;;;4976248;28;20509;-90
2021/12/10 05:43:24;;;;;;;28.08;11.00;;;-1.90;99.90;;;;;;4978020;28;20065;-89
2021/12/10 05:45:51;;;;;;;39.60;12.43;;;-1.90;99.90;;;;;;4977238;28;20035;-90
2021/12/10 05:48:17;;;;;;;29.13;11.98;;;-1.90;99.90;;;;;;4976584;28;20038;-90
2021/12/10 05:50:44;;;;;;;35.28;11.55;;;-1.90;99.90;;;;;;4960243;28;20030;-90
2021/12/10 05:53:10;;;;;;;27.92;10.00;;;-1.90;99.90;;;;;;4976418;28;20062;-89
2021/12/10 05:55:37;;;;;;;19.85;8.93;;;-1.90;99.90;;;;;;4976350;28;20074;-90
2021/12/10 05:58:05;;;;;;;34.75;11.30;;;-1.90;99.90;;;;;;4978297;28;20497;-90
2021/12/10 06:00:53;;;;;;;31.67;11.23;;;-1.90;99.90;;;;;;4976346;28;20131;-89
2021/12/10 06:03:25;;;;;;;31.00;10.73;;;-1.80;99.90;;;;;;4975472;28;20060;-89
2021/12/10 06:05:51;;;;;;;31.15;11.70;;;-1.80;99.90;;;;;;4975934;28;20042;-91
2021/12/10 06:08:17;;;;;;;31.95;11.88;;;-1.80;99.90;;;;;;4960331;28;20042;-90
2021/12/10 06:10:45;;;;;;;24.10;9.68;;;-1.90;99.90;;;;;;4976588;28;20035;-91
2021/12/10 06:13:11;;;;;;;32.67;9.55;;;-1.90;99.90;;;;;;4975928;28;20080;-90
2021/12/10 06:15:37;;;;;;;30.17;8.63;;;-1.90;99.90;;;;;;4976393;28;20505;-90
2021/12/10 06:18:04;;;;;;;28.55;9.70;;;-1.90;99.90;;;;;;4975835;28;20050;-91
2021/12/10 06:20:34;;;;;;;32.47;8.85;;;-1.90;99.90;;;;;;4975947;28;20011;-90
2021/12/10 06:23:00;;;;;;;30.52;10.10;;;-1.90;99.90;;;;;;4976221;28;20094;-90
2021/12/10 06:25:27;;;;;;;27.10;9.32;;;-1.90;99.90;;;;;;4976057;28;20039;-90
2021/12/10 06:27:53;;;;;;;26.50;8.73;;;-2.00;99.90;;;;;;4975383;28;20045;-90
2021/12/10 06:30:23;;;;;;;24.77;9.57;;;-2.00;99.90;;;;;;4976099;28;20043;-90
2021/12/10 06:32:51;;;;;;;33.40;10.98;;;-2.00;99.90;;;;;;4975981;28;20037;-90
2021/12/10 06:35:18;;;;;;;26.63;7.47;;;-2.10;99.90;;;;;;4975922;28;20030;-90
2021/12/10 06:37:44;;;;;;;25.17;7.80;;;-2.00;99.90;;;;;;4975580;28;20557;-90
2021/12/10 06:40:15;;;;;;;17.58;6.72;;;-2.00;99.90;;;;;;4975361;28;20117;-89
2021/12/10 06:42:42;;;;;;;23.40;7.63;;;-1.90;99.90;;;;;;4975113;28;20035;-90
2021/12/10 06:45:10;;;;;;;27.08;7.30;;;-2.00;99.90;;;;;;4977509;28;20043;-90
2021/12/10 06:47:36;;;;;;;25.95;7.60;;;-2.00;99.90;;;;;;4959379;28;20375;-91
2021/12/10 06:50:04;;;;;;;24.05;8.63;;;-2.10;99.90;;;;;;4975193;28;20610;-90
2021/12/10 06:52:30;;;;;;;22.25;8.45;;;-2.10;99.90;;;;;;4976460;28;20034;-90
2021/12/10 06:54:56;;;;;;;21.58;7.63;;;-2.10;99.90;;;;;;4959843;28;20031;-91
2021/12/10 06:57:22;;;;;;;24.58;9.55;;;-2.10;99.90;;;;;;4973255;28;20122;-92
2021/12/10 06:59:48;;;;;;;26.92;8.75;;;-2.10;99.90;;;;;;4972401;28;20454;-91
2021/12/10 07:02:14;;;;;;;29.23;10.95;;;-2.10;99.90;;;;;;4975627;28;20063;-90
2021/12/10 07:04:41;;;;;;;31.45;10.32;;;-2.10;99.90;;;;;;4975896;28;20101;-90
2021/12/10 07:07:08;;;;;;;21.70;9.13;;;-2.20;99.90;;;;;;4976076;28;20030;-91
2021/12/10 07:09:35;;;;;;;39.45;10.35;;;-2.20;99.90;;;;;;4960349;28;20058;-90
2021/12/10 07:12:02;;;;;;;34.25;11.35;;;-2.20;99.90;;;;;;4975098;28;20035;-90
2021/12/10 07:14:28;;;;;;;31.75;11.60;;;-2.20;99.90;;;;;;4959314;28;20030;-90
2021/12/10 07:16:54;;;;;;;35.22;10.65;;;-2.20;99.90;;;;;;4958623;28;20034;-89
2021/12/10 07:19:20;;;;;;;45.08;10.93;;;-2.10;99.90;;;;;;4974425;28;20035;-89
2021/12/10 07:21:46;;;;;;;32.75;11.05;;;-2.20;99.90;;;;;;4958172;28;20082;-90
2021/12/10 07:24:14;;;;;;;38.33;10.93;;;-2.10;99.90;;;;;;4974564;28;20034;-89
2021/12/10 07:26:41;;;;;;;37.47;11.60;;;-2.10;99.90;;;;;;4975721;28;20478;-90
2021/12/10 07:29:14;;;;;;;26.38;11.07;;;-2.10;99.90;;;;;;4976897;28;20034;-89
2021/12/10 07:31:42;;;;;;;24.42;11.18;;;-2.10;99.90;;;;;;4959028;28;20031;-90
2021/12/10 07:34:08;;;;;;;31.50;11.25;;;-2.10;99.90;;;;;;4974712;28;20401;-90
2021/12/10 07:36:37;;;;;;;31.63;10.50;;;-2.10;99.90;;;;;;4958201;28;20038;-88
2021/12/10 07:39:05;;;;;;;40.45;12.13;;;-2.10;99.90;;;;;;4974638;28;20027;-89
2021/12/10 07:41:31;;;;;;;81.40;27.98;;;-2.10;99.90;;;;;;4975231;28;20391;-90
2021/12/10 07:43:58;;;;;;;49.88;20.95;;;-2.10;99.90;;;;;;4959481;28;20059;-90
2021/12/10 07:46:27;;;;;;;40.63;13.30;;;-2.00;99.90;;;;;;4975367;28;20035;-89
2021/12/10 07:48:54;;;;;;;34.67;11.88;;;-2.00;99.90;;;;;;4960699;28;20034;-90
2021/12/10 07:51:23;;;;;;;29.65;10.70;;;-2.00;99.90;;;;;;4962574;28;20039;-89
2021/12/10 07:53:54;;;;;;;47.00;12.80;;;-2.00;99.90;;;;;;4962639;28;20066;-90
2021/12/10 07:56:21;;;;;;;33.15;11.80;;;-2.00;99.90;;;;;;4962793;28;20045;-89
2021/12/10 07:58:47;;;;;;;35.40;11.50;;;-1.90;99.90;;;;;;4979205;28;20034;-89
2021/12/10 08:01:25;;;;;;;27.35;11.98;;;-1.90;99.90;;;;;;4963147;28;20018;-89
2021/12/10 08:03:53;;;;;;;43.05;13.63;;;-1.90;99.90;;;;;;4978930;28;20031;-89
2021/12/10 08:06:20;;;;;;;26.95;11.60;;;-1.80;99.90;;;;;;4979231;28;20046;-90
2021/12/10 08:08:48;;;;;;;32.63;13.15;;;-1.70;99.90;;;;;;4977853;28;20035;-90
2021/12/10 08:11:54;;;;;;;36.20;12.00;;;-1.80;99.90;;;;;;4977401;28;20125;-89
2021/12/10 08:14:20;;;;;;;27.00;12.05;;;-1.70;99.90;;;;;;4961334;28;20077;-89
2021/12/10 08:16:46;;;;;;;36.25;13.40;;;-1.70;99.90;;;;;;4961308;28;20050;-89
2021/12/10 08:19:12;;;;;;;38.58;14.00;;;-1.60;99.90;;;;;;4977608;28;20055;-89
2021/12/10 08:21:39;;;;;;;41.60;14.32;;;-1.60;99.90;;;;;;4961533;28;20031;-89
2021/12/10 08:24:06;;;;;;;36.53;14.63;;;-1.50;99.90;;;;;;4961805;28;20035;-90
2021/12/10 08:26:32;;;;;;;46.72;15.50;;;-1.50;99.90;;;;;;4977883;28;20135;-89
2021/12/10 08:28:58;;;;;;;44.15;19.35;;;-1.50;99.90;;;;;;4977577;28;20067;-90
2021/12/10 08:31:24;;;;;;;46.97;16.30;;;-1.50;99.90;;;;;;4961622;28;20031;-89
2021/12/10 08:33:50;;;;;;;39.70;16.00;;;-1.50;99.90;;;;;;4961512;28;20486;-89
2021/12/10 08:36:18;;;;;;;42.28;15.95;;;-1.50;99.90;;;;;;4961219;28;20130;-90
2021/12/10 08:38:45;;;;;;;45.65;17.55;;;-1.50;99.90;;;;;;4977805;28;20026;-90
2021/12/10 08:41:24;;;;;;;56.05;18.60;;;-1.50;99.90;;;;;;4977284;28;20105;-89
2021/12/10 08:43:51;;;;;;;52.60;17.42;;;-1.40;99.90;;;;;;4977084;28;20031;-90
2021/12/10 08:46:17;;;;;;;38.30;15.98;;;-1.30;99.90;;;;;;4961400;28;20031;-89
2021/12/10 08:48:43;;;;;;;38.13;17.55;;;-1.30;99.90;;;;;;4977473;28;20030;-90
2021/12/10 08:51:15;;;;;;;51.97;18.30;;;-1.20;99.90;;;;;;4977663;28;20039;-89
2021/12/10 08:53:41;;;;;;;50.47;19.98;;;-1.20;99.90;;;;;;4961411;28;20031;-90
2021/12/10 08:56:09;;;;;;;51.00;18.23;;;-1.10;99.90;;;;;;4976754;28;20042;-89
2021/12/10 08:58:35;;;;;;;42.35;17.50;;;-1.10;99.90;;;;;;4977111;28;20497;-90
2021/12/10 09:01:26;;;;;;;44.00;17.77;;;-1.00;99.90;;;;;;4976108;28;20030;-90
2021/12/10 09:03:56;;;;;;;40.90;16.17;;;-1.00;99.90;;;;;;4976797;28;20034;-89
2021/12/10 09:06:26;;;;;;;41.45;16.05;;;-1.00;99.90;;;;;;4960824;28;20039;-90
2021/12/10 09:08:53;;;;;;;42.33;16.23;;;-0.90;99.90;;;;;;4960416;28;20083;-89
2021/12/10 09:11:19;;;;;;;35.38;15.40;;;-0.90;99.90;;;;;;4977041;28;20443;-89
2021/12/10 09:13:45;;;;;;;36.35;16.13;;;-0.90;99.90;;;;;;4961497;28;20046;-90
2021/12/10 09:16:21;;;;;;;39.55;15.45;;;-0.80;99.90;;;;;;4976771;28;20053;-90
2021/12/10 09:18:48;;;;;;;33.25;12.85;;;-0.80;99.90;;;;;;4977035;28;20046;-89
2021/12/10 09:21:14;;;;;;;33.90;13.63;;;-0.80;99.90;;;;;;4976759;28;20035;-89
2021/12/10 09:23:40;;;;;;;43.15;13.20;;;-0.80;99.90;;;;;;4976188;28;20429;-90
2021/12/10 09:26:12;;;;;;;36.20;13.20;;;-0.80;99.90;;;;;;4960815;28;20030;-90
2021/12/10 09:28:42;;;;;;;29.05;13.13;;;-0.80;99.90;;;;;;4976928;28;20098;-90
2021/12/10 09:31:09;;;;;;;41.63;13.52;;;-0.70;99.90;;;;;;4976823;28;20552;-89
2021/12/10 09:33:36;;;;;;;40.22;12.60;;;-0.70;99.90;;;;;;4976608;28;20038;-89
2021/12/10 09:36:02;;;;;;;37.00;12.05;;;-0.60;99.90;;;;;;4976371;28;20035;-89
2021/12/10 09:38:28;;;;;;;32.25;12.80;;;-0.60;99.90;;;;;;4960720;28;20470;-87
2021/12/10 09:40:58;;;;;;;26.75;11.82;;;-0.60;99.90;;;;;;4976830;28;20398;-90
2021/12/10 09:43:24;;;;;;;26.08;10.65;;;-0.60;99.90;;;;;;4960522;28;20545;-90
2021/12/10 09:45:52;;;;;;;25.42;11.85;;;-0.60;99.90;;;;;;4976592;28;20498;-89
2021/12/10 09:48:19;;;;;;;27.85;11.18;;;-0.60;99.90;;;;;;4976559;28;20478;-90
2021/12/10 09:51:32;;;;;;;26.30;10.93;;;-0.60;99.90;;;;;;4976120;28;20031;-89
2021/12/10 09:54:01;;;;;;;22.52;11.35;;;-0.60;99.90;;;;;;4960013;28;20039;-90
2021/12/10 09:56:28;;;;;;;27.75;12.23;;;-0.50;99.90;;;;;;4976436;28;20039;-90
2021/12/10 09:58:56;;;;;;;33.70;12.77;;;-0.50;99.90;;;;;;4976314;28;20066;-91
2021/12/10 10:01:37;;;;;;;26.60;12.20;;;-0.50;99.90;;;;;;4976615;28;20031;-90
2021/12/10 10:04:04;;;;;;;40.10;15.52;;;-0.40;99.90;;;;;;4976803;28;20089;-91
2021/12/10 10:06:36;;;;;;;29.23;13.80;;;-0.40;99.90;;;;;;4959856;28;20561;-91
2021/12/10 10:09:03;;;;;;;37.22;14.85;;;-0.40;99.90;;;;;;4976135;28;20126;-89
2021/12/10 10:11:33;;;;;;;36.40;12.93;;;-0.30;99.90;;;;;;4959340;28;20042;-90
2021/12/10 10:14:28;;;;;;;32.65;12.93;;;-0.50;99.90;;;;;;4976024;28;20509;-91
2021/12/10 10:16:54;;;;;;;38.78;13.60;;;-0.50;99.90;;;;;;4975992;28;20490;-90
2021/12/10 10:19:21;;;;;;;29.88;13.70;;;-0.50;99.90;;;;;;4959990;28;20525;-90
2021/12/10 10:21:53;;;;;;;26.45;12.65;;;-0.40;99.90;;;;;;4975885;28;20077;-89
2021/12/10 10:24:22;;;;;;;34.92;13.73;;;-0.30;99.90;;;;;;4952120;28;20034;-91
2021/12/10 10:27:00;;;;;;;24.27;10.95;;;-0.40;99.90;;;;;;4975710;28;20471;-89
2021/12/10 10:29:29;;;;;;;27.83;12.10;;;-0.30;99.90;;;;;;4975949;28;20042;-90
2021/12/10 10:32:09;;;;;;;33.83;14.23;;;-0.30;99.90;;;;;;4975724;28;20034;-91
2021/12/10 10:34:39;;;;;;;26.13;11.80;;;-0.20;99.90;;;;;;4975961;28;20085;-90
2021/12/10 10:37:05;;;;;;;23.33;10.75;;;-0.10;99.90;;;;;;4975635;28;20026;-90
2021/12/10 10:39:34;;;;;;;22.25;9.88;;;-0.10;99.90;;;;;;4975762;28;20034;-90
2021/12/10 10:42:02;;;;;;;24.92;9.93;;;0.00;99.90;;;;;;4959454;28;20025;-89
2021/12/10 10:44:28;;;;;;;20.88;10.02;;;0.00;99.90;;;;;;4975712;28;20030;-90
2021/12/10 10:46:57;;;;;;;27.33;10.80;;;0.00;99.90;;;;;;4976336;28;20030;-90
2021/12/10 10:49:43;;;;;;;21.40;10.38;;;0.00;99.90;;;;;;4975012;28;20031;-90
2021/12/10 10:52:32;;;;;;;23.67;9.95;;;0.00;99.90;;;;;;4959514;28;20115;-90
2021/12/10 10:55:17;;;;;;;22.02;10.25;;;0.00;99.90;;;;;;4975432;28;20228;-89
2021/12/10 10:58:09;;;;;;;28.80;10.95;;;0.00;99.90;;;;;;4975320;28;20045;-90
2021/12/10 11:01:14;;;;;;;19.90;9.95;;;0.10;99.90;;;;;;4959226;28;20027;-91
2021/12/10 11:03:56;;;;;;;23.35;10.02;;;0.00;99.90;;;;;;4959529;28;20125;-90
2021/12/10 11:06:36;;;;;;;21.50;9.55;;;0.00;99.90;;;;;;4976510;28;20505;-90
2021/12/10 11:09:10;;;;;;;20.45;10.25;;;0.10;99.90;;;;;;4959462;28;20043;-90
2021/12/10 11:11:43;;;;;;;21.80;8.85;;;0.10;99.90;;;;;;4975674;28;20031;-90
2021/12/10 11:14:37;;;;;;;20.27;8.75;;;0.20;99.90;;;;;;4974731;28;20046;-89
2021/12/10 11:17:26;;;;;;;27.50;9.85;;;0.20;99.90;;;;;;4957365;28;20053;-88
2021/12/10 11:20:03;;;;;;;18.02;8.35;;;0.30;99.90;;;;;;4945121;28;20035;-88
2021/12/10 11:22:30;;;;;;;16.63;9.73;;;0.30;99.90;;;;;;4973942;28;20030;-89
2021/12/10 11:25:09;;;;;;;26.80;13.05;;;0.30;99.90;;;;;;4974199;28;20387;-88
2021/12/10 11:27:39;;;;;;;26.65;9.90;;;0.20;99.90;;;;;;4974380;28;20046;-88
2021/12/10 11:30:18;;;;;;;20.08;9.90;;;0.30;99.90;;;;;;4974942;28;20046;-88
2021/12/10 11:32:52;;;;;;;22.40;10.15;;;0.30;99.90;;;;;;4975464;28;20057;-89
2021/12/10 11:35:22;;;;;;;23.20;10.75;;;0.30;99.90;;;;;;4958443;28;20383;-88
2021/12/10 11:38:10;;;;;;;23.67;11.25;;;0.30;99.90;;;;;;4961802;28;20101;-89
2021/12/10 11:40:49;;;;;;;19.95;9.90;;;0.20;99.90;;;;;;4975296;28;20031;-88
2021/12/10 11:49:00;;;;;;;28.17;11.37;;;0.30;99.90;;;;;;4977074;28;20081;-90
2021/12/10 11:51:38;;;;;;;17.60;8.50;;;0.40;99.90;;;;;;4975114;28;20365;-89
2021/12/10 11:54:36;;;;;;;18.75;9.55;;;0.50;99.90;;;;;;4959685;28;20636;-90
2021/12/10 11:57:24;;;;;;;21.13;9.15;;;0.50;99.90;;;;;;4958747;28;20502;-87
2021/12/10 11:59:57;;;;;;;17.00;9.40;;;0.50;99.90;;;;;;4958883;28;20117;-88
2021/12/10 12:02:30;;;;;;;30.25;13.82;;;0.50;99.90;;;;;;4959087;28;20651;-87
2021/12/10 12:04:57;;;;;;;33.65;15.63;;;0.50;99.90;;;;;;4958533;28;20035;-89
2021/12/10 12:07:33;;;;;;;30.98;11.82;;;0.50;99.90;;;;;;4974677;28;20394;-90
2021/12/10 12:10:23;;;;;;;18.70;9.65;;;0.60;99.90;;;;;;4958586;28;20038;-88
2021/12/10 12:13:02;;;;;;;24.33;10.07;;;0.60;99.90;;;;;;4972481;28;20448;-88
2021/12/10 12:15:33;;;;;;;21.15;10.60;;;0.60;99.90;;;;;;4991162;28;20038;-88
2021/12/10 12:18:09;;;;;;;28.02;11.60;;;0.60;99.90;;;;;;4975285;28;20520;-88
2021/12/10 12:20:37;;;;;;;21.83;9.77;;;0.60;99.90;;;;;;4959819;28;20031;-88
2021/12/10 12:26:25;;;;;;;15.52;8.52;;;0.60;99.90;;;;;;4991457;28;20049;-89
2021/12/10 12:29:07;;;;;;;18.50;8.38;;;0.60;99.90;;;;;;4990867;28;20035;-88
2021/12/10 12:31:49;;;;;;;19.15;7.63;;;0.50;99.90;;;;;;4974812;28;20129;-88
2021/12/10 12:34:20;;;;;;;18.98;8.98;;;0.60;99.90;;;;;;4991042;28;20133;-88
2021/12/10 12:36:51;;;;;;;19.50;7.82;;;0.60;99.90;;;;;;4993907;28;20043;-88
2021/12/10 12:39:38;;;;;;;21.95;8.60;;;0.60;99.90;;;;;;4994150;28;20474;-88
2021/12/10 12:42:18;;;;;;;18.48;8.05;;;0.60;99.90;;;;;;4994835;28;20035;-87
2021/12/10 12:44:45;;;;;;;18.30;7.85;;;0.50;99.90;;;;;;4978405;28;20027;-87
2021/12/10 12:47:29;;;;;;;27.25;12.70;;;0.40;99.90;;;;;;4978526;28;20038;-87
2021/12/10 12:50:12;;;;;;;29.65;13.23;;;0.30;99.90;;;;;;4993151;28;20613;-87
2021/12/10 12:52:54;;;;;;;29.83;10.05;;;0.30;99.90;;;;;;4977623;28;20414;-88
2021/12/10 12:55:42;;;;;;;22.40;7.55;;;0.30;99.90;;;;;;4977133;28;20042;-88
2021/12/10 12:58:22;;;;;;;21.67;7.47;;;0.30;99.90;;;;;;4993383;28;20033;-87
2021/12/10 13:01:01;;;;;;;24.98;9.48;;;0.20;99.90;;;;;;4976818;28;20031;-87
2021/12/10 13:03:38;;;;;;;26.38;10.02;;;0.20;99.90;;;;;;4961980;28;20030;-88
2021/12/10 13:06:24;;;;;;;18.35;8.55;;;0.10;99.90;;;;;;4977799;28;20089;-88
2021/12/10 13:09:17;;;;;;;24.58;9.40;;;0.00;99.90;;;;;;4993921;28;20038;-90
2021/12/10 13:12:03;;;;;;;24.00;9.43;;;-0.10;99.90;;;;;;4993988;28;20035;-88